createdAt,value
2022-08-02T00:02:16.143Z,18.59
2022-08-02T00:06:18.504Z,18.46
2022-08-02T00:10:20.814Z,18.38
2022-08-02T00:14:22.885Z,18.44
2022-08-02T00:18:25.239Z,18.37
2022-08-02T00:22:27.328Z,18.39
2022-08-02T00:26:29.895Z,18.34
2022-08-02T00:30:31.992Z,18.30
2022-08-02T00:34:38.024Z,18.30
2022-08-02T00:38:40.447Z,18.40
2022-08-02T00:42:44.367Z,18.45
2022-08-02T00:46:47.159Z,18.47
2022-08-02T00:50:49.457Z,18.42
2022-08-02T00:54:51.551Z,18.40
2022-08-02T00:58:53.796Z,18.41
2022-08-02T01:02:55.998Z,18.20
2022-08-02T01:07:12.639Z,18.19
2022-08-02T01:11:15.417Z,18.14
2022-08-02T01:15:18.846Z,17.70
2022-08-02T01:19:51.635Z,18.20
2022-08-02T01:24:12.484Z,18.23
2022-08-02T01:28:23.845Z,18.29
2022-08-02T01:32:34.254Z,18.33
2022-08-02T01:36:40.575Z,18.16
2022-08-02T01:40:45.365Z,18.22
2022-08-02T01:44:52.588Z,18.33
2022-08-02T01:48:58.364Z,18.30
2022-08-02T01:53:06.179Z,18.29
2022-08-02T01:57:13.331Z,18.16
2022-08-02T02:01:18.745Z,18.19
2022-08-02T02:05:24.448Z,18.04
2022-08-02T02:09:31.838Z,17.99
2022-08-02T02:13:36.495Z,17.89
2022-08-02T02:17:52.044Z,17.96
2022-08-02T02:22:06.235Z,17.86
2022-08-02T02:26:13.844Z,17.81
2022-08-02T02:30:17.119Z,17.93
2022-08-02T02:34:27.994Z,17.97
2022-08-02T02:38:33.607Z,17.73
2022-08-02T02:42:35.916Z,17.72
2022-08-02T02:46:39.053Z,17.75
2022-08-02T02:50:44.522Z,17.77
2022-08-02T02:54:49.300Z,17.79
2022-08-02T02:58:56.922Z,17.63
2022-08-02T03:02:59.414Z,17.52
2022-08-02T03:07:01.737Z,17.52
2022-08-02T03:11:04.564Z,17.73
2022-08-02T03:15:08.465Z,17.59
2022-08-02T03:19:10.884Z,17.43
2022-08-02T03:23:12.858Z,17.36
2022-08-02T03:27:15.117Z,17.40
2022-08-02T03:31:17.295Z,17.39
2022-08-02T03:35:24.085Z,17.36
2022-08-02T03:39:28.666Z,17.48
2022-08-02T03:43:32.481Z,17.45
2022-08-02T03:47:36.334Z,17.39
2022-08-02T03:51:39.379Z,17.34
2022-08-02T03:55:41.534Z,17.53
2022-08-02T03:59:46.690Z,17.51
2022-08-02T04:03:48.765Z,17.55
2022-08-02T04:08:34.299Z,17.66
2022-08-02T04:12:14.125Z,17.71
2022-08-02T04:16:22.850Z,17.73
2022-08-02T04:20:30.242Z,17.90
2022-08-02T04:24:38.815Z,18.07
2022-08-02T04:28:43.032Z,18.14
2022-08-02T04:32:46.290Z,18.42
2022-08-02T04:36:48.960Z,18.55
2022-08-02T04:40:53.928Z,18.45
2022-08-02T04:44:56.046Z,18.51
2022-08-02T04:48:58.483Z,18.69
2022-08-02T04:53:00.967Z,18.77
2022-08-02T04:57:23.184Z,18.78
2022-08-02T05:01:25.228Z,19.03
2022-08-02T05:05:27.855Z,19.19
2022-08-02T05:09:30.028Z,19.19
2022-08-02T05:13:32.231Z,19.23
2022-08-02T05:17:34.494Z,19.27
2022-08-02T05:21:37.179Z,19.39
2022-08-02T05:25:39.178Z,19.52
2022-08-02T05:29:41.931Z,19.79
2022-08-02T05:33:56.331Z,19.93
2022-08-02T05:37:58.596Z,19.96
2022-08-02T05:42:00.794Z,20.12
2022-08-02T05:46:03.072Z,20.44
2022-08-02T05:50:08.045Z,20.58
2022-08-02T05:54:24.033Z,20.79
2022-08-02T05:58:41.637Z,20.93
2022-08-02T06:02:43.865Z,21.04
2022-08-02T06:06:52.571Z,21.02
2022-08-02T06:11:01.590Z,21.26
2022-08-02T06:15:05.110Z,21.66
2022-08-02T06:19:08.227Z,22.01
2022-08-02T06:23:13.766Z,22.15
2022-08-02T06:27:19.179Z,22.15
2022-08-02T06:31:21.242Z,22.18
2022-08-02T06:35:35.417Z,22.35
2022-08-02T06:39:52.660Z,22.49
2022-08-02T06:44:19.452Z,22.76
2022-08-02T06:48:24.539Z,22.97
2022-08-02T06:52:31.401Z,23.07
2022-08-02T06:56:33.545Z,23.47
2022-08-02T07:00:37.001Z,23.29
2022-08-02T07:04:39.084Z,23.52
2022-08-02T07:08:50.941Z,23.33
2022-08-02T07:13:02.039Z,23.33
2022-08-02T07:17:04.483Z,23.30
2022-08-02T07:21:08.869Z,23.45
2022-08-02T07:25:12.224Z,23.54
2022-08-02T07:29:14.301Z,23.89
2022-08-02T07:33:37.910Z,24.19
2022-08-02T07:37:55.096Z,24.22
2022-08-02T07:42:01.848Z,24.14
2022-08-02T07:46:03.916Z,24.28
2022-08-02T07:50:07.745Z,24.53
2022-08-02T07:54:09.885Z,24.77
2022-08-02T07:58:13.618Z,25.04
2022-08-02T08:02:16.666Z,24.87
2022-08-02T08:06:18.870Z,24.97
2022-08-02T08:10:32.838Z,25.11
2022-08-02T08:14:35.212Z,24.87
2022-08-02T08:18:37.409Z,25.27
2022-08-02T08:22:39.940Z,25.19
2022-08-02T08:26:41.885Z,25.30
2022-08-02T08:30:44.054Z,25.57
2022-08-02T08:34:47.385Z,25.19
2022-08-02T08:38:50.501Z,25.25
2022-08-02T08:42:53.115Z,25.75
2022-08-02T08:46:58.741Z,25.87
2022-08-02T08:51:19.198Z,25.56
2022-08-02T08:55:24.711Z,25.58
2022-08-02T08:59:26.838Z,25.66
2022-08-02T09:03:29.355Z,25.87
2022-08-02T09:07:36.232Z,25.66
2022-08-02T09:11:39.445Z,25.70
2022-08-02T09:15:42.899Z,25.91
2022-08-02T09:19:45.896Z,26.21
2022-08-02T09:23:51.767Z,26.03
2022-08-02T09:27:54.856Z,26.06
2022-08-02T09:32:03.568Z,26.33
2022-08-02T09:36:24.733Z,26.14
2022-08-02T09:40:36.175Z,26.17
2022-08-02T09:44:38.812Z,26.46
2022-08-02T09:48:53.058Z,26.12
2022-08-02T09:52:57.199Z,25.67
2022-08-02T09:57:01.751Z,25.63
2022-08-02T10:01:04.480Z,25.27
2022-08-02T10:05:06.954Z,26.03
2022-08-02T10:09:10.478Z,26.48
2022-08-02T10:13:12.580Z,26.48
2022-08-02T10:17:25.400Z,26.18
2022-08-02T10:21:33.710Z,26.24
2022-08-02T10:25:37.643Z,26.01
2022-08-02T10:29:44.787Z,26.06
2022-08-02T10:34:00.177Z,26.63
2022-08-02T10:38:11.020Z,26.82
2022-08-02T10:42:45.522Z,27.41
2022-08-02T10:46:47.627Z,26.98
2022-08-02T10:50:49.935Z,26.73
2022-08-02T10:55:00.136Z,26.41
2022-08-02T10:59:30.687Z,26.20
2022-08-02T11:03:33.664Z,25.69
2022-08-02T11:07:49.317Z,26.13
2022-08-02T11:12:03.423Z,26.57
2022-08-02T11:16:11.352Z,26.87
2022-08-02T11:20:16.843Z,26.79
2022-08-02T11:24:31.768Z,27.33
2022-08-02T11:28:34.146Z,26.79
2022-08-02T11:32:36.769Z,27.03
2022-08-02T11:36:49.054Z,26.46
2022-08-02T11:40:57.198Z,26.23
2022-08-02T11:45:00.174Z,26.57
2022-08-02T11:49:18.886Z,26.56
2022-08-02T11:53:21.133Z,26.29
2022-08-02T11:57:23.614Z,26.38
2022-08-02T12:01:25.649Z,26.34
2022-08-02T12:06:03.009Z,26.07
2022-08-02T12:09:50.769Z,25.90
2022-08-02T12:13:57.207Z,26.49
2022-08-02T12:18:18.622Z,27.04
2022-08-02T12:22:27.459Z,26.81
2022-08-02T12:26:30.372Z,26.65
2022-08-02T12:30:49.408Z,26.20
2022-08-02T12:35:07.093Z,26.12
2022-08-02T12:39:16.996Z,26.17
2022-08-02T12:43:22.016Z,26.39
2022-08-02T12:47:25.161Z,26.87
2022-08-02T12:51:56.357Z,27.06
2022-08-02T12:56:03.706Z,27.12
2022-08-02T13:00:06.886Z,27.61
2022-08-02T13:04:13.638Z,27.26
2022-08-02T13:08:17.007Z,27.34
2022-08-02T13:12:19.312Z,27.48
2022-08-02T13:16:30.618Z,27.43
2022-08-02T13:20:33.990Z,27.10
2022-08-02T13:24:39.673Z,26.78
2022-08-02T13:28:42.928Z,26.64
2022-08-02T13:32:45.058Z,26.92
2022-08-02T13:36:47.289Z,27.10
2022-08-02T13:41:08.114Z,27.35
2022-08-02T13:45:12.659Z,26.84
2022-08-02T13:49:19.806Z,26.99
2022-08-02T13:53:22.950Z,27.12
2022-08-02T13:57:24.945Z,27.49
2022-08-02T14:01:27.316Z,27.84
2022-08-02T14:05:39.254Z,27.68
2022-08-02T14:09:50.308Z,27.57
2022-08-02T14:13:52.649Z,27.80
2022-08-02T14:17:54.971Z,27.28
2022-08-02T14:22:10.927Z,26.86
2022-08-02T14:26:16.065Z,26.86
2022-08-02T14:30:30.201Z,26.17
2022-08-02T14:34:32.533Z,26.33
2022-08-02T14:38:37.114Z,26.30
2022-08-02T14:42:39.557Z,26.58
2022-08-02T14:46:41.816Z,26.75
2022-08-02T14:50:44.124Z,27.27
2022-08-02T14:54:46.809Z,27.49
2022-08-02T14:58:49.570Z,27.72
2022-08-02T15:02:51.631Z,27.28
2022-08-02T15:06:54.906Z,26.60
2022-08-02T15:10:57.045Z,26.60
2022-08-02T15:15:00.385Z,26.69
2022-08-02T15:19:03.119Z,26.88
2022-08-02T15:23:08.883Z,26.71
2022-08-02T15:27:14.540Z,26.75
2022-08-02T15:31:22.559Z,26.70
2022-08-02T15:35:35.525Z,26.55
2022-08-02T15:39:37.998Z,26.33
2022-08-02T15:44:00.227Z,26.09
2022-08-02T15:48:03.971Z,26.21
2022-08-02T15:52:06.062Z,26.50
2022-08-02T15:56:12.793Z,26.44
2022-08-02T16:00:18.874Z,26.54
2022-08-02T16:04:21.566Z,26.66
2022-08-02T16:08:23.628Z,26.88
2022-08-02T16:12:32.105Z,26.45
2022-08-02T16:16:37.153Z,26.16
2022-08-02T16:20:39.574Z,26.17
2022-08-02T16:24:41.737Z,25.96
2022-08-02T16:28:44.110Z,25.92
2022-08-02T16:32:46.205Z,25.91
2022-08-02T16:36:48.557Z,25.74
2022-08-02T16:40:50.592Z,25.78
2022-08-02T16:44:54.892Z,25.75
2022-08-02T16:48:57.422Z,25.62
2022-08-02T16:52:59.744Z,25.51
2022-08-02T16:57:09.405Z,25.36
2022-08-02T17:01:11.707Z,25.24
2022-08-02T17:05:14.692Z,25.23
2022-08-02T17:10:01.634Z,25.15
2022-08-02T17:13:39.159Z,25.01
2022-08-02T17:17:43.217Z,24.97
2022-08-02T17:21:45.424Z,24.88
2022-08-02T17:25:52.348Z,24.78
2022-08-02T17:29:55.486Z,24.67
2022-08-02T17:33:58.465Z,24.51
2022-08-02T17:38:01.873Z,24.27
2022-08-02T17:42:07.664Z,24.05
2022-08-02T17:46:09.756Z,23.70
2022-08-02T17:50:12.578Z,23.54
2022-08-02T17:54:17.395Z,23.39
2022-08-02T17:58:21.347Z,23.18
2022-08-02T18:02:35.065Z,22.81
2022-08-02T18:06:37.654Z,22.71
2022-08-02T18:10:39.817Z,22.40
2022-08-02T18:14:46.187Z,22.22
2022-08-02T18:18:51.476Z,22.11
2022-08-02T18:22:58.369Z,21.91
2022-08-02T18:27:01.079Z,21.66
2022-08-02T18:31:06.561Z,21.51
2022-08-02T18:35:09.346Z,21.30
2022-08-02T18:39:11.578Z,21.09
2022-08-02T18:43:13.555Z,21.06
2022-08-02T18:47:16.795Z,20.81
2022-08-02T18:51:19.368Z,20.74
2022-08-02T18:55:59.923Z,20.57
2022-08-02T18:59:43.966Z,20.49
2022-08-02T19:03:53.758Z,20.41
2022-08-02T19:07:55.819Z,20.24
2022-08-02T19:11:58.038Z,20.17
2022-08-02T19:16:00.135Z,20.11
2022-08-02T19:20:04.162Z,20.00
2022-08-02T19:24:06.965Z,20.02
2022-08-02T19:28:11.246Z,19.85
2022-08-02T19:32:40.430Z,19.85
2022-08-02T19:36:36.426Z,19.87
2022-08-02T19:40:42.108Z,19.84
2022-08-02T19:44:45.616Z,19.75
2022-08-02T19:48:47.988Z,19.78
2022-08-02T19:52:52.848Z,19.59
2022-08-02T19:56:54.962Z,19.58
2022-08-02T20:00:59.410Z,19.34
2022-08-02T20:05:01.492Z,19.25
2022-08-02T20:09:33.149Z,19.19
2022-08-02T20:13:47.201Z,19.31
2022-08-02T20:17:52.872Z,19.08
2022-08-02T20:21:59.419Z,19.14
2022-08-02T20:26:02.727Z,19.00
2022-08-02T20:30:05.146Z,18.94
2022-08-02T20:34:07.551Z,18.82
2022-08-02T20:38:11.944Z,18.77
2022-08-02T20:42:22.791Z,18.82
2022-08-02T20:46:26.516Z,18.83
2022-08-02T20:50:49.284Z,18.80
2022-08-02T20:54:53.105Z,18.64
2022-08-02T20:58:55.966Z,18.53
2022-08-02T21:03:07.076Z,18.51
2022-08-02T21:07:11.582Z,18.46
2022-08-02T21:11:15.149Z,18.45
2022-08-02T21:15:17.496Z,18.39
2022-08-02T21:19:19.555Z,18.27
2022-08-02T21:23:24.461Z,18.50
2022-08-02T21:27:52.041Z,18.44
2022-08-02T21:31:49.323Z,18.29
2022-08-02T21:35:54.196Z,18.21
2022-08-02T21:39:56.525Z,18.25
2022-08-02T21:44:03.344Z,18.21
2022-08-02T21:48:08.987Z,18.05
2022-08-02T21:52:15.160Z,17.99
2022-08-02T21:56:18.989Z,18.01
2022-08-02T22:00:28.321Z,17.89
2022-08-02T22:04:31.279Z,17.87
2022-08-02T22:08:33.272Z,17.83
2022-08-02T22:12:37.207Z,17.84
2022-08-02T22:16:40.204Z,17.78
2022-08-02T22:20:43.511Z,17.72
2022-08-02T22:24:48.549Z,17.61
2022-08-02T22:28:56.151Z,17.58
2022-08-02T22:33:20.848Z,17.55
2022-08-02T22:38:17.228Z,17.48
2022-08-02T22:42:05.790Z,17.43
2022-08-02T22:46:15.610Z,17.36
2022-08-02T22:50:19.353Z,17.31
2022-08-02T23:30:24.818Z,17.08
2022-08-02T23:34:27.076Z,17.10
2022-08-02T23:38:29.126Z,17.06
2022-08-02T23:42:31.283Z,17.13
2022-08-02T23:46:33.444Z,16.95
2022-08-02T23:50:35.780Z,16.77
2022-08-02T23:54:39.418Z,16.66
2022-08-02T23:58:41.903Z,16.65
